Time;durP1;ratioP1;P1;durP2;ratioP2;P2;SDS_P1;SDS_P2;PMS_P1;PMS_P2;Temp;Humidity;BMP_temperature;BMP_pressure;BME280_temperature;BME280_humidity;BME280_pressure;Samples;Min_cycle;Max_cycle;Signal;HPM_P1;HPM_P2
2022/06/27 00:00:17;;;;;;;6.90;6.28;;;17.90;99.90;;;;;;5064143;28;20048;-64
2022/06/27 00:02:43;;;;;;;6.30;5.72;;;17.80;99.90;;;;;;5066051;28;20048;-64
2022/06/27 00:05:10;;;;;;;6.53;5.57;;;17.80;99.90;;;;;;5065219;28;20120;-64
2022/06/27 00:07:36;;;;;;;6.63;6.03;;;17.80;99.90;;;;;;5066597;28;20055;-64
2022/06/27 00:10:02;;;;;;;6.85;6.03;;;17.80;99.90;;;;;;5064741;28;20044;-65
2022/06/27 00:12:28;;;;;;;6.53;5.88;;;17.80;99.90;;;;;;5065544;28;20634;-64
2022/06/27 00:14:53;;;;;;;7.75;6.20;;;17.80;99.90;;;;;;5064513;28;20036;-64
2022/06/27 00:17:19;;;;;;;6.63;5.97;;;17.80;99.90;;;;;;5064417;28;20056;-64
2022/06/27 00:19:44;;;;;;;7.85;5.90;;;17.90;99.90;;;;;;5064300;28;20047;-64
2022/06/27 00:22:10;;;;;;;6.47;5.65;;;17.90;99.90;;;;;;5065689;28;20110;-64
2022/06/27 00:24:36;;;;;;;6.03;5.50;;;17.90;99.90;;;;;;5066182;28;20407;-64
2022/06/27 00:27:01;;;;;;;6.05;5.32;;;17.90;99.90;;;;;;5064133;28;20460;-64
2022/06/27 00:29:27;;;;;;;5.90;5.35;;;17.90;99.90;;;;;;5064668;28;20064;-63
2022/06/27 00:31:53;;;;;;;7.20;4.70;;;17.90;99.90;;;;;;5065369;28;20504;-64
2022/06/27 00:34:18;;;;;;;7.35;5.25;;;17.90;99.90;;;;;;5065147;28;20048;-64
2022/06/27 00:36:44;;;;;;;6.00;5.50;;;17.80;99.90;;;;;;5064460;28;20136;-64
2022/06/27 00:39:10;;;;;;;5.80;5.22;;;17.80;99.90;;;;;;5064525;28;20051;-64
2022/06/27 00:41:36;;;;;;;5.32;4.85;;;17.80;99.90;;;;;;5065384;28;20074;-64
2022/06/27 00:44:02;;;;;;;7.80;5.93;;;17.80;99.90;;;;;;5064736;28;20056;-64
2022/06/27 00:46:29;;;;;;;5.68;5.18;;;17.70;99.90;;;;;;5065287;28;20048;-64
2022/06/27 00:48:55;;;;;;;6.18;5.68;;;17.80;99.90;;;;;;5066160;28;20055;-64
2022/06/27 00:51:20;;;;;;;5.80;5.30;;;17.80;99.90;;;;;;5069936;28;20036;-64
2022/06/27 00:53:46;;;;;;;6.28;5.70;;;17.80;99.90;;;;;;5069216;28;20040;-64
2022/06/27 00:56:12;;;;;;;7.45;5.78;;;17.80;99.90;;;;;;5067769;28;20044;-66
2022/06/27 00:58:38;;;;;;;5.93;5.43;;;17.80;99.90;;;;;;5068370;28;20052;-66
2022/06/27 01:01:04;;;;;;;6.00;5.40;;;17.70;99.90;;;;;;5069733;28;20042;-66
2022/06/27 01:03:29;;;;;;;7.50;6.40;;;17.70;99.90;;;;;;5068777;28;20079;-66
2022/06/27 01:05:56;;;;;;;7.57;5.82;;;17.70;99.90;;;;;;5069321;28;20268;-66
2022/06/27 01:08:25;;;;;;;7.60;6.90;;;17.70;99.90;;;;;;5067476;28;20052;-66
2022/06/27 01:10:51;;;;;;;6.45;5.85;;;17.60;99.90;;;;;;5068162;28;20048;-66
2022/06/27 01:13:17;;;;;;;6.20;5.60;;;17.60;99.90;;;;;;5067661;28;20095;-66
2022/06/27 01:15:44;;;;;;;5.88;5.38;;;17.60;99.90;;;;;;5067576;28;20052;-66
2022/06/27 01:18:11;;;;;;;5.85;5.25;;;17.60;99.90;;;;;;5068761;28;20399;-66
2022/06/27 01:20:37;;;;;;;7.35;6.18;;;17.60;99.90;;;;;;5069221;28;20052;-66
2022/06/27 01:23:03;;;;;;;6.38;5.72;;;17.80;99.90;;;;;;5068720;28;20080;-66
2022/06/27 01:25:29;;;;;;;5.68;5.28;;;17.60;99.90;;;;;;5067417;28;20033;-66
2022/06/27 01:27:54;;;;;;;6.97;6.10;;;17.60;99.90;;;;;;5068805;28;20081;-66
2022/06/27 01:30:21;;;;;;;7.72;6.10;;;17.60;99.90;;;;;;5068115;28;20101;-66
2022/06/27 01:32:49;;;;;;;8.55;6.10;;;17.50;99.90;;;;;;5068565;28;20502;-66
2022/06/27 01:35:15;;;;;;;9.93;6.72;;;17.50;99.90;;;;;;5069016;28;20071;-65
2022/06/27 01:37:41;;;;;;;8.00;7.35;;;17.50;99.90;;;;;;5068204;28;20048;-66
2022/06/27 01:40:07;;;;;;;8.20;7.47;;;17.50;99.90;;;;;;5068468;28;20042;-66
2022/06/27 01:42:34;;;;;;;9.57;8.65;;;17.40;99.90;;;;;;5069279;28;20403;-66
2022/06/27 01:45:00;;;;;;;8.95;7.65;;;17.40;99.90;;;;;;5068027;28;20108;-66
2022/06/27 01:47:27;;;;;;;9.18;7.93;;;17.50;99.90;;;;;;5068777;28;20963;-66
2022/06/27 01:49:53;;;;;;;13.50;9.55;;;17.40;99.90;;;;;;5067294;28;20124;-66
2022/06/27 01:52:19;;;;;;;9.15;8.30;;;17.00;99.90;;;;;;5067629;28;20119;-66
2022/06/27 01:54:45;;;;;;;9.43;8.52;;;17.40;99.90;;;;;;5068720;28;20040;-66
2022/06/27 01:57:11;;;;;;;9.57;8.65;;;17.40;99.90;;;;;;5068124;28;20063;-66
2022/06/27 01:59:37;;;;;;;12.10;10.23;;;17.40;99.90;;;;;;5066641;28;20056;-64
2022/06/27 02:02:04;;;;;;;10.88;9.73;;;17.40;99.90;;;;;;5067367;28;20415;-64
2022/06/27 02:04:31;;;;;;;10.02;8.93;;;17.40;99.90;;;;;;5068663;28;20486;-64
2022/06/27 02:06:58;;;;;;;9.90;8.90;;;17.40;99.90;;;;;;5066073;28;20049;-64
2022/06/27 02:09:24;;;;;;;12.57;9.38;;;17.40;99.90;;;;;;5068085;28;20487;-64
2022/06/27 02:11:51;;;;;;;10.88;9.88;;;17.40;99.90;;;;;;5067200;28;20698;-63
2022/06/27 02:14:18;;;;;;;10.70;9.60;;;17.30;99.90;;;;;;5066949;28;20526;-64
2022/06/27 02:16:44;;;;;;;11.60;8.18;;;17.40;99.90;;;;;;5066771;28;20041;-64
2022/06/27 02:19:15;;;;;;;8.80;8.10;;;17.40;99.90;;;;;;5067137;28;20594;-63
2022/06/27 02:21:42;;;;;;;11.35;10.18;;;17.40;99.90;;;;;;5066815;28;20492;-63
2022/06/27 02:24:09;;;;;;;10.68;9.57;;;17.30;99.90;;;;;;5067552;28;20526;-64
2022/06/27 02:26:36;;;;;;;10.73;9.15;;;17.30;99.90;;;;;;5067587;28;20403;-63
2022/06/27 02:29:02;;;;;;;11.57;9.38;;;17.60;99.90;;;;;;5068544;28;20514;-64
2022/06/27 02:31:28;;;;;;;10.10;9.10;;;17.30;99.90;;;;;;5067755;28;20044;-64
2022/06/27 02:33:55;;;;;;;10.65;9.43;;;17.30;99.90;;;;;;5065518;28;20045;-64
2022/06/27 02:36:26;;;;;;;9.98;9.02;;;17.20;99.90;;;;;;5067897;28;20360;-64
2022/06/27 02:38:55;;;;;;;11.18;10.02;;;17.20;99.90;;;;;;5067529;28;20285;-63
2022/06/27 02:41:21;;;;;;;11.25;10.13;;;17.20;99.90;;;;;;5066904;28;20250;-63
2022/06/27 02:43:49;;;;;;;14.40;10.48;;;17.20;99.90;;;;;;5067249;28;20115;-63
2022/06/27 02:46:15;;;;;;;10.18;9.32;;;17.20;99.90;;;;;;5067713;28;20087;-64
2022/06/27 02:48:47;;;;;;;10.73;9.55;;;17.20;99.90;;;;;;5065446;28;20048;-63
2022/06/27 02:51:18;;;;;;;13.07;9.82;;;17.20;99.90;;;;;;5067387;28;20465;-63
2022/06/27 02:53:58;;;;;;;9.07;8.27;;;17.20;99.90;;;;;;5067455;28;20083;-64
2022/06/27 02:56:27;;;;;;;13.80;10.23;;;17.20;99.90;;;;;;5067346;28;20085;-64
2022/06/27 02:59:03;;;;;;;11.55;10.45;;;17.20;99.90;;;;;;5067142;28;20051;-63
2022/06/27 03:01:31;;;;;;;11.20;9.55;;;17.40;99.90;;;;;;5066590;28;20051;-64
2022/06/27 03:03:59;;;;;;;13.43;9.48;;;17.20;99.90;;;;;;5066698;28;20048;-63
2022/06/27 03:06:26;;;;;;;10.38;9.20;;;17.20;99.90;;;;;;5067303;28;20054;-64
2022/06/27 03:08:52;;;;;;;9.65;8.65;;;17.20;99.90;;;;;;5065981;28;20515;-64
2022/06/27 03:11:21;;;;;;;10.35;9.50;;;17.20;99.90;;;;;;5066748;28;20122;-64
2022/06/27 03:13:47;;;;;;;11.20;10.07;;;17.20;99.90;;;;;;5067037;28;20412;-63
2022/06/27 03:16:14;;;;;;;10.13;9.02;;;17.20;99.90;;;;;;5066228;28;20051;-64
2022/06/27 03:18:40;;;;;;;10.65;9.65;;;17.20;99.90;;;;;;5066722;28;20086;-63
2022/06/27 03:21:06;;;;;;;11.35;8.40;;;17.20;99.90;;;;;;5067260;28;20040;-63
2022/06/27 03:23:32;;;;;;;9.95;9.05;;;17.20;99.90;;;;;;5066405;28;20480;-63
2022/06/27 03:25:58;;;;;;;9.93;8.95;;;17.20;99.90;;;;;;5066343;28;20131;-63
2022/06/27 03:28:24;;;;;;;11.05;9.93;;;17.20;99.90;;;;;;5066804;28;20051;-64
2022/06/27 03:30:50;;;;;;;10.13;9.07;;;17.20;99.90;;;;;;5065546;28;20494;-63
2022/06/27 03:33:15;;;;;;;10.50;9.50;;;17.10;99.90;;;;;;5066402;28;20052;-63
2022/06/27 03:35:42;;;;;;;10.52;9.55;;;17.10;99.90;;;;;;5066300;28;20044;-64
2022/06/27 03:38:08;;;;;;;12.13;10.88;;;17.20;99.90;;;;;;5065937;28;20051;-64
2022/06/27 03:40:34;;;;;;;12.13;10.88;;;17.20;99.90;;;;;;5067052;28;20491;-63
2022/06/27 03:43:01;;;;;;;11.57;10.57;;;17.10;99.90;;;;;;5065977;28;20044;-64
2022/06/27 03:45:26;;;;;;;12.60;11.32;;;17.10;99.90;;;;;;5064431;28;20202;-63
2022/06/27 03:47:58;;;;;;;11.75;10.70;;;17.20;99.90;;;;;;5065877;28;20052;-63
2022/06/27 03:50:25;;;;;;;10.55;9.68;;;17.10;99.90;;;;;;5064471;28;20530;-63
2022/06/27 03:52:52;;;;;;;11.27;10.25;;;17.10;99.90;;;;;;5066279;28;20041;-63
2022/06/27 03:55:17;;;;;;;12.05;10.95;;;17.20;99.90;;;;;;5066230;28;20049;-63
2022/06/27 03:57:49;;;;;;;13.65;11.23;;;17.10;99.90;;;;;;5065494;28;20055;-64
2022/06/27 04:00:16;;;;;;;11.93;10.85;;;17.10;99.90;;;;;;5064922;28;20041;-64
2022/06/27 04:02:41;;;;;;;9.82;8.82;;;17.10;99.90;;;;;;5064642;28;20040;-64
2022/06/27 04:05:07;;;;;;;11.35;10.38;;;17.10;99.90;;;;;;5064043;28;20051;-64
2022/06/27 04:07:33;;;;;;;11.45;10.35;;;17.10;99.90;;;;;;5066765;28;20044;-63
2022/06/27 04:09:58;;;;;;;10.48;9.55;;;17.10;99.90;;;;;;5066124;28;20063;-64
2022/06/27 04:12:24;;;;;;;10.85;9.85;;;17.00;99.90;;;;;;5065057;28;20032;-64
2022/06/27 04:14:51;;;;;;;10.55;9.45;;;17.10;99.90;;;;;;5065615;28;20090;-64
2022/06/27 04:17:16;;;;;;;12.90;10.00;;;17.10;99.90;;;;;;5066330;28;20071;-64
2022/06/27 04:19:42;;;;;;;10.35;9.45;;;17.10;99.90;;;;;;5063913;28;20049;-63
2022/06/27 04:22:11;;;;;;;10.73;8.27;;;17.10;99.90;;;;;;5065600;28;20051;-63
2022/06/27 04:24:37;;;;;;;10.48;9.57;;;17.10;99.90;;;;;;5063936;28;20442;-63
2022/06/27 04:27:04;;;;;;;11.00;10.00;;;17.10;99.90;;;;;;5064327;28;20051;-64
2022/06/27 04:29:31;;;;;;;10.90;9.95;;;17.10;99.90;;;;;;5065667;28;20511;-63
2022/06/27 04:31:57;;;;;;;10.50;9.50;;;17.20;99.90;;;;;;5065334;28;20464;-64
2022/06/27 04:34:23;;;;;;;10.85;9.75;;;17.10;99.90;;;;;;5065050;28;20496;-64
2022/06/27 04:36:50;;;;;;;12.32;10.65;;;17.20;99.90;;;;;;5065729;28;20087;-63
2022/06/27 04:39:17;;;;;;;11.45;10.35;;;17.20;99.90;;;;;;5065842;28;20037;-63
2022/06/27 04:41:47;;;;;;;14.05;11.07;;;17.20;99.90;;;;;;5065044;28;20052;-63
2022/06/27 04:44:13;;;;;;;14.20;11.88;;;17.30;99.90;;;;;;5065809;28;20076;-64
2022/06/27 04:46:41;;;;;;;13.65;12.25;;;17.30;99.90;;;;;;5065074;28;20045;-63
2022/06/27 04:49:07;;;;;;;15.25;11.95;;;17.20;99.90;;;;;;5065983;28;20124;-64
2022/06/27 04:51:34;;;;;;;14.13;12.73;;;17.20;99.90;;;;;;5066075;28;20404;-63
2022/06/27 04:54:00;;;;;;;15.73;12.80;;;17.20;99.90;;;;;;5064346;28;20434;-64
2022/06/27 04:56:26;;;;;;;13.32;12.07;;;17.20;99.90;;;;;;5063908;28;20128;-64
2022/06/27 04:58:52;;;;;;;15.48;12.02;;;17.20;99.90;;;;;;5065467;28;20076;-64
2022/06/27 05:01:17;;;;;;;14.52;13.02;;;17.20;99.90;;;;;;5065159;28;20045;-63
2022/06/27 05:03:43;;;;;;;13.50;12.10;;;17.20;99.90;;;;;;5065891;28;20504;-64
2022/06/27 05:06:09;;;;;;;13.02;11.77;;;17.20;99.90;;;;;;5063817;28;20045;-64
2022/06/27 05:08:37;;;;;;;14.65;11.70;;;17.20;99.90;;;;;;5065198;28;20225;-64
2022/06/27 05:11:04;;;;;;;13.10;11.75;;;17.20;99.90;;;;;;5065748;28;20456;-64
2022/06/27 05:13:30;;;;;;;15.85;12.07;;;17.20;99.90;;;;;;5065697;28;20414;-64
2022/06/27 05:15:56;;;;;;;13.40;11.75;;;17.30;99.90;;;;;;5064752;28;20094;-63
2022/06/27 05:18:21;;;;;;;15.45;12.32;;;17.30;99.90;;;;;;5064183;28;20499;-63
2022/06/27 05:20:48;;;;;;;12.00;10.85;;;17.30;99.90;;;;;;5065133;28;20116;-63
2022/06/27 05:23:13;;;;;;;12.15;10.93;;;17.30;99.90;;;;;;5064637;28;20407;-63
2022/06/27 05:25:41;;;;;;;10.52;9.63;;;17.30;99.90;;;;;;5064121;28;20040;-64
2022/06/27 05:28:07;;;;;;;11.38;10.27;;;17.30;99.90;;;;;;5065184;28;20052;-63
2022/06/27 05:30:33;;;;;;;10.73;9.73;;;17.30;99.90;;;;;;5065288;28;20045;-64
2022/06/27 05:32:59;;;;;;;10.65;9.60;;;17.30;99.90;;;;;;5065032;28;20127;-63
2022/06/27 05:35:26;;;;;;;10.20;9.13;;;17.40;99.90;;;;;;5066907;28;20045;-63
2022/06/27 05:37:53;;;;;;;10.75;9.48;;;17.40;99.90;;;;;;5068067;28;20045;-64
2022/06/27 05:40:20;;;;;;;8.65;7.90;;;17.40;99.90;;;;;;5068617;28;20406;-63
2022/06/27 05:42:47;;;;;;;7.82;7.13;;;17.40;99.90;;;;;;5067582;28;20048;-63
2022/06/27 05:45:13;;;;;;;8.52;7.45;;;17.40;99.90;;;;;;5068922;28;20048;-64
2022/06/27 05:47:40;;;;;;;8.43;7.70;;;17.60;99.90;;;;;;5068648;28;20128;-63
2022/06/27 05:50:07;;;;;;;7.47;6.85;;;17.50;99.90;;;;;;5068201;28;20052;-64
2022/06/27 05:52:33;;;;;;;7.97;7.18;;;17.40;99.90;;;;;;5067867;28;20044;-66
2022/06/27 05:54:59;;;;;;;7.22;6.57;;;17.30;99.90;;;;;;5066887;28;20119;-66
2022/06/27 05:57:26;;;;;;;7.10;6.40;;;17.40;99.90;;;;;;5067717;28;20128;-66
2022/06/27 05:59:55;;;;;;;6.82;6.15;;;17.50;99.90;;;;;;5068305;28;20095;-66
2022/06/27 06:02:21;;;;;;;8.98;6.25;;;17.50;99.90;;;;;;5068502;28;20049;-66
2022/06/27 06:04:48;;;;;;;6.50;5.60;;;17.50;99.90;;;;;;5067234;28;20098;-65
2022/06/27 06:07:14;;;;;;;6.60;5.88;;;17.50;99.90;;;;;;5066857;28;20483;-66
2022/06/27 06:09:41;;;;;;;8.73;6.28;;;17.70;99.90;;;;;;5068360;28;20051;-66
2022/06/27 06:12:09;;;;;;;8.10;4.90;;;17.50;99.90;;;;;;5067620;28;20047;-66
2022/06/27 06:14:36;;;;;;;6.68;5.82;;;17.60;99.90;;;;;;5068654;28;20459;-66
2022/06/27 06:17:03;;;;;;;7.60;5.55;;;17.60;99.90;;;;;;5068288;28;20118;-66
2022/06/27 06:19:29;;;;;;;6.95;5.20;;;17.60;99.90;;;;;;5067108;28;20044;-66
2022/06/27 06:21:55;;;;;;;6.70;5.07;;;17.60;99.90;;;;;;5067714;28;20033;-66
2022/06/27 06:24:21;;;;;;;6.18;4.63;;;16.70;99.90;;;;;;5067882;28;20132;-66
2022/06/27 06:26:47;;;;;;;5.03;4.40;;;17.60;99.90;;;;;;5066808;28;20127;-66
2022/06/27 06:29:14;;;;;;;4.38;3.97;;;17.60;99.90;;;;;;5066853;28;20495;-66
2022/06/27 06:31:43;;;;;;;4.50;3.83;;;17.60;99.90;;;;;;5067609;28;20048;-66
2022/06/27 06:34:11;;;;;;;7.80;3.85;;;17.60;99.90;;;;;;5065619;28;20045;-66
2022/06/27 06:36:38;;;;;;;4.20;3.47;;;17.60;99.90;;;;;;5066544;28;20097;-66
2022/06/27 06:39:05;;;;;;;4.07;3.65;;;17.60;99.90;;;;;;5066125;28;20084;-66
2022/06/27 06:41:32;;;;;;;4.55;4.15;;;17.60;99.90;;;;;;5066699;28;20715;-66
2022/06/27 06:43:59;;;;;;;3.90;3.50;;;17.60;99.90;;;;;;5067483;28;20044;-66
2022/06/27 06:46:26;;;;;;;3.80;3.58;;;17.60;99.90;;;;;;5066278;28;20047;-66
2022/06/27 06:49:12;;;;;;;3.75;3.45;;;17.60;99.90;;;;;;5066317;28;20511;-66
2022/06/27 06:51:39;;;;;;;4.35;3.95;;;17.60;99.90;;;;;;5067069;28;20503;-66
2022/06/27 06:54:08;;;;;;;4.20;3.90;;;17.60;99.90;;;;;;5065714;28;20124;-66
2022/06/27 06:56:34;;;;;;;4.90;4.50;;;17.60;99.90;;;;;;5067812;28;20446;-66
2022/06/27 06:59:02;;;;;;;5.57;5.07;;;17.60;99.90;;;;;;5067052;28;20090;-65
2022/06/27 07:01:29;;;;;;;4.10;3.80;;;17.60;99.90;;;;;;5066496;28;20259;-65
2022/06/27 07:03:58;;;;;;;4.15;3.80;;;17.60;99.90;;;;;;5066979;28;20040;-66
2022/06/27 07:06:26;;;;;;;4.07;3.67;;;17.60;99.90;;;;;;5067171;28;20044;-65
2022/06/27 07:08:53;;;;;;;4.50;4.20;;;17.60;99.90;;;;;;5066096;28;20124;-65
2022/06/27 07:11:21;;;;;;;4.65;3.97;;;17.60;99.90;;;;;;5065907;28;20085;-66
2022/06/27 07:13:48;;;;;;;5.07;4.30;;;17.60;99.90;;;;;;5066908;28;20059;-65
2022/06/27 07:16:14;;;;;;;4.70;4.30;;;17.60;99.90;;;;;;5065041;28;20127;-66
2022/06/27 07:18:40;;;;;;;5.63;5.05;;;17.70;99.90;;;;;;5067204;28;20048;-66
2022/06/27 07:21:08;;;;;;;5.90;5.10;;;17.70;99.90;;;;;;5065808;28;20036;-66
2022/06/27 07:23:33;;;;;;;5.22;4.82;;;17.80;99.90;;;;;;5067455;28;20091;-66
2022/06/27 07:25:59;;;;;;;5.65;4.68;;;17.70;99.90;;;;;;5065190;28;20076;-65
2022/06/27 07:28:28;;;;;;;5.20;4.80;;;17.80;99.90;;;;;;5066012;28;20123;-67
2022/06/27 07:30:55;;;;;;;5.88;4.60;;;17.80;99.90;;;;;;5066756;28;20049;-65
2022/06/27 07:33:21;;;;;;;4.70;4.30;;;17.80;99.90;;;;;;5066396;28;20494;-65
2022/06/27 07:35:47;;;;;;;4.82;4.40;;;17.90;99.90;;;;;;5065875;28;20047;-65
2022/06/27 07:38:13;;;;;;;5.28;4.20;;;17.90;99.90;;;;;;5066669;28;20037;-66
2022/06/27 07:40:39;;;;;;;6.60;3.92;;;17.90;99.90;;;;;;5066449;28;20149;-66
2022/06/27 07:43:05;;;;;;;5.90;3.85;;;17.90;99.90;;;;;;5066030;28;20349;-66
2022/06/27 07:45:32;;;;;;;4.47;4.05;;;17.90;99.90;;;;;;5067239;28;20049;-66
2022/06/27 07:47:57;;;;;;;4.75;3.95;;;17.90;99.90;;;;;;5066424;28;20048;-66
2022/06/27 07:50:40;;;;;;;4.28;3.90;;;17.90;99.90;;;;;;5065669;28;20465;-66
2022/06/27 07:53:12;;;;;;;4.88;3.60;;;17.80;99.90;;;;;;5065389;28;20057;-66
2022/06/27 07:55:39;;;;;;;3.70;3.35;;;17.80;99.90;;;;;;5066011;28;20044;-65
2022/06/27 07:58:07;;;;;;;3.00;2.70;;;17.70;99.90;;;;;;5065656;28;20052;-66
2022/06/27 08:00:33;;;;;;;4.43;2.92;;;17.70;99.90;;;;;;5066672;28;20044;-66
2022/06/27 08:03:36;;;;;;;2.83;2.63;;;17.70;99.90;;;;;;5065979;28;20048;-66
2022/06/27 08:05:45;;;;;;;3.97;2.80;;;17.80;99.90;;;;;;5065576;28;20067;-65
2022/06/27 08:08:10;;;;;;;2.75;2.53;;;17.70;99.90;;;;;;5066122;28;20487;-66
2022/06/27 08:10:37;;;;;;;2.65;2.20;;;17.70;99.90;;;;;;5065896;28;20070;-65
2022/06/27 08:13:02;;;;;;;3.42;2.97;;;17.70;99.90;;;;;;5066339;28;20044;-66
2022/06/27 08:15:28;;;;;;;2.78;2.58;;;17.80;99.90;;;;;;5066059;28;20644;-66
2022/06/27 08:17:54;;;;;;;2.90;2.70;;;17.80;99.90;;;;;;5064904;28;20557;-66
2022/06/27 08:20:19;;;;;;;5.20;2.95;;;17.90;99.90;;;;;;5065890;28;20123;-66
2022/06/27 08:22:46;;;;;;;3.15;2.85;;;17.90;99.90;;;;;;5065917;28;20044;-65
2022/06/27 08:25:12;;;;;;;6.50;2.50;;;17.90;99.90;;;;;;5064115;28;20044;-65
2022/06/27 08:27:38;;;;;;;2.83;2.35;;;18.00;99.90;;;;;;5064579;28;20331;-65
2022/06/27 08:30:06;;;;;;;3.30;3.00;;;18.00;99.90;;;;;;5066414;28;20139;-65
2022/06/27 08:32:31;;;;;;;5.95;2.60;;;18.10;99.90;;;;;;5065176;28;20127;-66
2022/06/27 08:34:57;;;;;;;4.00;2.60;;;18.10;99.90;;;;;;5065368;28;20124;-66
2022/06/27 08:37:24;;;;;;;2.78;2.58;;;18.10;99.90;;;;;;5065696;28;20051;-66
2022/06/27 08:39:50;;;;;;;6.50;2.95;;;18.20;99.90;;;;;;5063603;28;20123;-66
2022/06/27 08:42:16;;;;;;;3.67;3.03;;;18.20;99.90;;;;;;5064572;28;20128;-66
2022/06/27 08:44:41;;;;;;;3.58;2.88;;;18.20;99.90;;;;;;5065725;28;20048;-66
2022/06/27 08:47:07;;;;;;;8.38;2.90;;;18.30;99.90;;;;;;5065292;28;20041;-66
2022/06/27 08:49:33;;;;;;;5.28;2.50;;;18.20;99.90;;;;;;5066331;28;20041;-66
2022/06/27 08:52:00;;;;;;;2.42;2.15;;;18.30;99.90;;;;;;5065622;28;20044;-66
2022/06/27 08:54:28;;;;;;;3.35;2.20;;;18.30;99.90;;;;;;5065004;28;20048;-66
2022/06/27 08:56:54;;;;;;;2.22;2.03;;;18.20;99.90;;;;;;5065255;28;20048;-65
2022/06/27 08:59:20;;;;;;;3.17;2.80;;;18.20;99.90;;;;;;5065709;28;20052;-65
2022/06/27 09:01:46;;;;;;;4.93;2.58;;;18.20;99.90;;;;;;5065058;28;20077;-66
2022/06/27 09:04:13;;;;;;;4.90;3.40;;;18.30;99.90;;;;;;5065337;28;20048;-66
2022/06/27 09:06:42;;;;;;;2.85;2.65;;;18.40;99.90;;;;;;5065203;28;20099;-66
2022/06/27 09:09:08;;;;;;;2.88;2.67;;;18.30;99.90;;;;;;5063945;28;20126;-66
2022/06/27 09:11:38;;;;;;;4.15;2.88;;;18.40;99.90;;;;;;5068964;28;20103;-66
2022/06/27 09:14:05;;;;;;;2.75;2.53;;;18.50;99.90;;;;;;5068758;28;20052;-66
2022/06/27 09:16:32;;;;;;;6.15;3.08;;;18.60;99.90;;;;;;5069327;28;20047;-66
2022/06/27 09:18:58;;;;;;;3.03;2.83;;;18.70;99.90;;;;;;5069019;28;20063;-66
2022/06/27 09:21:25;;;;;;;3.35;2.17;;;18.80;99.90;;;;;;5068512;28;20040;-65
2022/06/27 09:23:58;;;;;;;3.67;2.85;;;18.70;99.90;;;;;;5068702;28;20084;-66
2022/06/27 09:26:34;;;;;;;3.03;2.60;;;19.10;99.90;;;;;;5069214;28;20037;-66
2022/06/27 09:29:19;;;;;;;3.58;1.95;;;18.90;99.90;;;;;;5068146;28;20438;-66
2022/06/27 09:31:46;;;;;;;4.50;2.45;;;19.00;99.90;;;;;;5067349;28;20048;-66
2022/06/27 09:34:23;;;;;;;4.40;2.08;;;19.00;99.90;;;;;;5067798;28;20123;-66
2022/06/27 09:37:01;;;;;;;4.88;2.22;;;18.90;99.90;;;;;;5068048;28;20040;-65
2022/06/27 09:39:36;;;;;;;2.60;2.40;;;18.90;99.90;;;;;;5068623;28;20721;-65
2022/06/27 09:42:11;;;;;;;3.53;2.63;;;18.80;99.90;;;;;;5067192;28;20094;-66
2022/06/27 09:44:41;;;;;;;2.45;2.20;;;18.80;99.90;;;;;;5069290;28;20492;-66
2022/06/27 09:47:17;;;;;;;2.80;2.58;;;18.70;99.90;;;;;;5066907;28;20124;-66
2022/06/27 09:49:45;;;;;;;2.70;2.50;;;18.80;99.90;;;;;;5067715;28;20048;-65
2022/06/27 09:52:14;;;;;;;5.63;2.63;;;18.80;99.90;;;;;;5069249;28;20055;-66
2022/06/27 09:54:42;;;;;;;5.20;1.98;;;18.70;99.90;;;;;;5068606;28;20244;-65
2022/06/27 09:57:09;;;;;;;3.17;1.73;;;18.70;99.90;;;;;;5066268;28;20121;-66
2022/06/27 09:59:37;;;;;;;2.28;2.15;;;19.00;99.90;;;;;;5067447;28;20430;-65
2022/06/27 10:02:04;;;;;;;3.42;2.40;;;18.40;99.90;;;;;;5068885;28;20121;-66
2022/06/27 10:04:31;;;;;;;1.85;1.75;;;18.70;99.90;;;;;;5067595;28;20049;-66
2022/06/27 10:07:00;;;;;;;2.38;2.17;;;18.70;99.90;;;;;;5067961;28;20342;-66
2022/06/27 10:09:28;;;;;;;2.85;2.38;;;18.70;99.90;;;;;;5068497;28;20092;-65
2022/06/27 10:12:31;;;;;;;2.00;1.90;;;18.70;99.90;;;;;;5067260;28;20081;-66
2022/06/27 10:15:12;;;;;;;2.03;1.90;;;18.70;99.90;;;;;;5067956;28;20332;-66
2022/06/27 10:17:47;;;;;;;2.20;2.00;;;18.70;99.90;;;;;;5066213;28;20255;-65
2022/06/27 10:20:34;;;;;;;2.80;1.80;;;18.80;99.90;;;;;;5068197;28;20055;-65
2022/06/27 10:23:08;;;;;;;2.28;2.08;;;18.70;99.90;;;;;;5066669;28;20498;-66
2022/06/27 10:25:36;;;;;;;1.73;1.63;;;18.80;99.90;;;;;;5067652;28;20388;-66
2022/06/27 10:28:09;;;;;;;1.60;1.50;;;18.70;99.90;;;;;;5068456;28;20087;-65
2022/06/27 10:30:48;;;;;;;2.05;1.90;;;18.80;99.90;;;;;;5068534;28;20049;-66
2022/06/27 10:33:23;;;;;;;1.85;1.65;;;18.80;99.90;;;;;;5067129;28;20051;-66
2022/06/27 10:35:55;;;;;;;2.17;2.08;;;18.90;99.90;;;;;;5067436;28;20409;-65
2022/06/27 10:38:28;;;;;;;2.33;2.13;;;18.90;99.90;;;;;;5067227;28;20033;-65
2022/06/27 10:40:55;;;;;;;2.60;1.77;;;18.80;99.90;;;;;;5067618;28;20052;-66
2022/06/27 10:43:44;;;;;;;2.05;1.95;;;19.00;99.90;;;;;;5067803;28;20040;-66
2022/06/27 10:46:10;;;;;;;4.85;2.05;;;18.90;99.90;;;;;;5066805;28;20106;-65
2022/06/27 10:48:45;;;;;;;2.47;2.28;;;18.90;99.90;;;;;;5066534;28;20048;-64
2022/06/27 10:51:24;;;;;;;2.15;1.98;;;18.90;99.90;;;;;;5067916;28;20048;-66
2022/06/27 10:54:14;;;;;;;3.75;2.22;;;18.90;99.90;;;;;;5066448;28;20047;-66
2022/06/27 10:56:51;;;;;;;6.63;2.40;;;18.90;99.90;;;;;;5067329;28;20064;-66
2022/06/27 10:59:17;;;;;;;2.25;2.05;;;18.90;99.90;;;;;;5066924;28;20114;-66
2022/06/27 11:01:57;;;;;;;3.38;2.13;;;18.90;99.90;;;;;;5067315;28;20503;-66
2022/06/27 11:04:38;;;;;;;2.75;2.10;;;18.90;99.90;;;;;;5065981;28;20423;-65
2022/06/27 11:07:09;;;;;;;3.70;2.53;;;19.00;99.90;;;;;;5065711;28;20055;-65
2022/06/27 11:09:38;;;;;;;3.13;2.23;;;19.00;99.90;;;;;;5067655;28;20051;-66
2022/06/27 11:12:05;;;;;;;3.13;2.70;;;19.10;99.90;;;;;;5067466;28;20044;-65
2022/06/27 11:14:52;;;;;;;3.88;2.90;;;19.10;99.90;;;;;;5065046;28;20056;-65
2022/06/27 11:17:31;;;;;;;3.53;2.88;;;19.20;99.90;;;;;;5067167;28;20051;-66
2022/06/27 11:20:15;;;;;;;3.50;2.88;;;19.20;99.90;;;;;;5066576;28;20055;-65
2022/06/27 11:23:00;;;;;;;2.63;2.42;;;19.20;99.90;;;;;;5066915;28;20091;-66
2022/06/27 11:25:28;;;;;;;4.25;3.65;;;19.30;99.90;;;;;;5066836;28;20502;-66
2022/06/27 11:33:33;;;;;;;3.90;3.35;;;19.20;99.90;;;;;;5066087;28;20052;-66
2022/06/27 11:35:59;;;;;;;4.30;3.47;;;19.20;99.90;;;;;;5065706;28;20052;-66
2022/06/27 11:38:27;;;;;;;3.20;2.90;;;19.20;99.90;;;;;;5066430;28;20086;-65
2022/06/27 11:41:03;;;;;;;4.20;3.00;;;19.30;99.90;;;;;;5066143;28;20059;-66
2022/06/27 11:43:47;;;;;;;6.22;3.17;;;19.30;99.90;;;;;;5064459;28;20063;-65
2022/06/27 11:46:29;;;;;;;5.47;3.65;;;19.30;99.90;;;;;;5066515;28;20052;-66
2022/06/27 11:49:20;;;;;;;4.93;3.72;;;19.30;99.90;;;;;;5064402;28;20059;-66
2022/06/27 11:51:47;;;;;;;3.47;3.15;;;19.30;99.90;;;;;;5057804;28;20491;-66
2022/06/27 11:54:20;;;;;;;4.43;3.80;;;19.30;99.90;;;;;;5066309;28;20095;-66
2022/06/27 11:56:48;;;;;;;4.20;3.80;;;19.30;99.90;;;;;;5065178;28;20057;-66
2022/06/27 11:59:17;;;;;;;3.78;3.47;;;19.40;99.90;;;;;;5066007;28;20127;-66
2022/06/27 12:02:03;;;;;;;4.57;4.05;;;19.40;99.90;;;;;;5066436;28;20051;-66
2022/06/27 12:04:33;;;;;;;5.18;3.75;;;19.50;99.90;;;;;;5065254;28;20063;-65
2022/06/27 12:07:04;;;;;;;4.20;3.85;;;19.50;99.90;;;;;;5066060;28;20056;-65
2022/06/27 12:09:30;;;;;;;3.95;3.53;;;19.50;99.90;;;;;;5065660;28;20380;-66
2022/06/27 12:12:04;;;;;;;4.30;3.40;;;19.60;99.90;;;;;;5065646;28;20139;-65
2022/06/27 12:14:32;;;;;;;3.60;3.30;;;19.60;99.90;;;;;;5066160;28;20040;-65
2022/06/27 12:16:59;;;;;;;5.13;4.05;;;19.50;99.90;;;;;;5065059;28;20049;-65
2022/06/27 12:19:28;;;;;;;4.65;4.22;;;19.60;99.90;;;;;;5065749;28;20041;-65
2022/06/27 12:21:54;;;;;;;4.43;4.03;;;19.60;99.90;;;;;;5064313;28;20415;-66
2022/06/27 12:24:20;;;;;;;6.22;4.95;;;19.50;99.90;;;;;;5064978;28;20045;-65
2022/06/27 12:26:46;;;;;;;5.40;3.92;;;19.60;99.90;;;;;;5065698;28;20482;-65
2022/06/27 12:29:12;;;;;;;4.15;3.60;;;19.70;99.90;;;;;;5065765;28;20139;-66
2022/06/27 12:31:40;;;;;;;4.35;4.00;;;19.60;99.90;;;;;;5064829;28;20423;-66
2022/06/27 12:34:06;;;;;;;6.65;4.70;;;19.60;99.90;;;;;;5066218;28;20089;-66
2022/06/27 12:36:33;;;;;;;4.70;4.20;;;19.70;99.90;;;;;;5066125;28;20053;-66
2022/06/27 12:39:00;;;;;;;3.95;3.65;;;19.70;99.90;;;;;;5063574;28;20139;-65
2022/06/27 12:41:25;;;;;;;4.38;3.97;;;19.80;99.90;;;;;;5064078;28;20094;-66
2022/06/27 12:43:51;;;;;;;8.40;4.00;;;19.80;99.90;;;;;;5065445;28;20040;-65
2022/06/27 12:46:18;;;;;;;5.30;4.32;;;19.80;99.90;;;;;;5068780;28;20139;-65
2022/06/27 12:48:45;;;;;;;4.93;4.18;;;19.90;99.90;;;;;;5068440;28;20048;-65
2022/06/27 12:51:11;;;;;;;6.20;3.95;;;19.90;99.90;;;;;;5068551;28;20041;-65
2022/06/27 12:53:37;;;;;;;5.95;3.90;;;19.90;99.90;;;;;;5069219;28;20469;-66